Terminal Aerodrome Forecast
Issued by NWS Flagstaff, AZ

Home | Current Version | Previous Version | Text Only | Print | Product List | Glossary On
Versions: 1 2 3 4 5 6 7 8 9 10 11 12 13 14 15 16
000
FTUS45 KFGZ 201700
TAFFLG
TAF
KFLG 201735Z 2018/2118 VRB06KT P6SM SCT070 SCT110
     FM201900 VRB06KT P6SM VCTS SCT040CB BKN070
      TEMPO 2020/2024 VRB15G25KT 3SM TSRA OVC030CB
     FM210300 VRB03KT P6SM VCSH BKN060=

USA.gov is the U.S. government's official web portal to all federal, state and local government web resources and services.